Time;durP1;ratioP1;P1;durP2;ratioP2;P2;SDS_P1;SDS_P2;PMS_P1;PMS_P2;Temp;Humidity;BMP_temperature;BMP_pressure;BME280_temperature;BME280_humidity;BME280_pressure;Samples;Min_cycle;Max_cycle;Signal;HPM_P1;HPM_P2
2021/11/20 12:42:47;;;;;;;12.03;2.08;;;;;;;15.11;43.54;98638.67;1798853;79;22036;-62
2021/11/20 12:45:37;;;;;;;6.58;2.60;;;;;;;15.34;42.55;98643.72;1758239;80;20927;-60
2021/11/20 12:48:40;;;;;;;7.05;2.22;;;;;;;15.24;43.14;98643.91;1764204;80;21156;-62
2021/11/20 12:51:39;;;;;;;7.25;2.10;;;;;;;15.19;42.39;98637.88;1774126;80;21497;-65
2021/11/20 12:54:44;;;;;;;8.73;2.95;;;;;;;14.97;42.46;98655.36;1769894;80;21481;-62
2021/11/20 12:57:19;;;;;;;5.58;2.02;;;;;;;14.89;42.33;98661.53;1766001;80;20943;-67
2021/11/20 12:59:53;;;;;;;7.00;2.37;;;;;;;14.73;42.82;98666.89;1776594;80;20876;-66
2021/11/20 13:02:30;;;;;;;6.47;2.08;;;;;;;14.65;42.36;98673.84;1774282;80;21848;-68
2021/11/20 13:04:57;;;;;;;5.45;2.08;;;;;;;14.56;42.52;98670.58;1776590;80;20970;-67
2021/11/20 13:07:28;;;;;;;5.60;2.47;;;;;;;14.49;42.86;98677.02;1767411;80;20926;-68
2021/11/20 13:10:05;;;;;;;7.22;2.90;;;;;;;14.37;42.82;98670.16;1770076;80;21468;-71
2021/11/20 13:12:45;;;;;;;4.97;1.87;;;;;;;14.29;43.19;98666.91;1768333;80;21005;-70
2021/11/20 13:15:55;;;;;;;4.97;2.17;;;;;;;14.22;43.33;98674.44;1769648;80;21144;-77
2021/11/20 13:18:34;;;;;;;6.03;2.25;;;;;;;14.14;43.54;98667.98;1762292;80;20954;-66
2021/11/20 13:21:20;;;;;;;11.38;2.98;;;;;;;14.03;43.98;98673.16;1766259;80;20959;-66
2021/11/20 13:23:48;;;;;;;8.03;2.80;;;;;;;13.93;44.73;98679.47;1766722;80;26446;-69
2021/11/20 13:26:25;;;;;;;11.97;4.12;;;;;;;13.82;45.04;98672.92;1759704;80;20927;-68
2021/11/20 13:28:52;;;;;;;13.75;3.62;;;;;;;13.82;45.35;98672.13;1763770;80;21333;-71
2021/11/20 13:31:18;;;;;;;10.15;3.40;;;;;;;13.78;45.53;98685.08;1773726;80;21700;-65
2021/11/20 13:33:47;;;;;;;11.97;3.62;;;;;;;13.75;45.66;98692.69;1776086;80;21386;-70
2021/11/20 13:36:13;;;;;;;12.90;4.10;;;;;;;13.68;45.70;98698.57;1774343;80;22468;-62
2021/11/20 13:38:40;;;;;;;12.03;4.28;;;;;;;13.54;46.00;98700.44;1769845;80;21073;-58
2021/11/20 13:41:06;;;;;;;13.58;3.98;;;;;;;13.35;46.34;98696.75;1763163;80;21129;-75
2021/11/20 13:43:38;;;;;;;11.50;3.85;;;;;;;13.24;46.81;98700.06;1753093;81;21049;-69
2021/11/20 13:46:14;;;;;;;10.48;3.70;;;;;;;13.17;47.30;98706.41;1754060;81;21047;-72
2021/11/20 13:48:40;;;;;;;8.68;4.03;;;;;;;13.05;47.21;98710.19;1753519;81;20919;-70
2021/11/20 13:51:20;;;;;;;15.13;4.20;;;;;;;12.94;47.42;98705.45;1765424;81;20986;-70
2021/11/20 13:53:54;;;;;;;14.15;3.08;;;;;;;12.83;47.66;98711.38;1762856;81;21157;-70
2021/11/20 13:56:20;;;;;;;8.70;3.05;;;;;;;12.76;47.87;98715.89;1750958;81;20933;-67
2021/11/20 13:58:56;;;;;;;10.25;2.70;;;;;;;12.69;48.12;98720.40;1749317;81;20983;-70
2021/11/20 14:01:26;;;;;;;6.62;2.00;;;;;;;12.62;48.31;98724.37;1756777;80;21505;-68
2021/11/20 14:03:57;;;;;;;6.75;2.20;;;;;;;12.53;48.76;98721.59;1748987;81;21116;-72
2021/11/20 14:06:23;;;;;;;7.15;2.10;;;;;;;12.39;49.09;98727.89;1763569;81;21145;-72
2021/11/20 14:08:50;;;;;;;7.05;2.92;;;;;;;12.18;49.47;98740.83;1750257;81;21073;-70
2021/11/20 14:11:19;;;;;;;6.50;2.33;;;;;;;12.00;49.94;98737.88;1759779;81;21014;-69
2021/11/20 14:13:57;;;;;;;5.78;2.30;;;;;;;11.86;50.48;98746.00;1763362;81;21413;-69
2021/11/20 14:16:38;;;;;;;4.42;2.05;;;;;;;11.75;51.01;98761.52;1763890;81;20900;-70
2021/11/20 14:19:06;;;;;;;5.10;2.42;;;;;;;11.69;51.25;98760.95;1763318;81;21811;-69
2021/11/20 14:21:35;;;;;;;7.75;2.50;;;;;;;11.66;51.51;98757.31;1764063;80;21302;-70
2021/11/20 14:24:10;;;;;;;8.25;2.95;;;;;;;11.62;51.64;98765.39;1751499;80;20996;-69
2021/11/20 14:26:50;;;;;;;8.95;2.52;;;;;;;11.63;51.73;98763.52;1750954;80;21053;-67
2021/11/20 14:29:26;;;;;;;8.50;3.30;;;;;;;11.63;51.72;98769.68;1755762;80;21045;-65
2021/11/20 14:31:53;;;;;;;13.48;3.47;;;;;;;11.58;51.96;98771.28;1685239;83;21158;-69
2021/11/20 14:34:33;;;;;;;7.22;2.75;;;;;;;11.53;52.12;98774.53;1758582;81;21579;-69
2021/11/20 14:36:59;;;;;;;6.42;3.00;;;;;;;11.44;52.53;98782.36;1748740;81;20896;-69
2021/11/20 14:39:30;;;;;;;7.75;2.50;;;;;;;11.32;52.92;98777.72;1750462;81;20964;-75
2021/11/20 14:41:59;;;;;;;5.42;3.15;;;;;;;11.20;53.33;98781.92;1758158;80;21497;-70
2021/11/20 14:44:25;;;;;;;7.40;2.85;;;;;;;11.09;53.86;98788.08;1758741;80;21167;-67
2021/11/20 14:47:09;;;;;;;7.33;3.30;;;;;;;11.00;54.16;98787.87;1764697;80;21034;-67
2021/11/20 14:49:40;;;;;;;7.37;3.10;;;;;;;10.90;54.53;98783.36;1710943;82;21065;-70
2021/11/20 14:52:27;;;;;;;12.95;3.95;;;;;;;10.80;55.02;98794.83;1746326;80;20986;-69
2021/11/20 14:54:59;;;;;;;5.30;3.15;;;;;;;10.68;55.33;98791.52;1754158;80;20928;-73
2021/11/20 14:57:29;;;;;;;6.03;2.55;;;;;;;10.67;55.38;98793.34;1753266;80;21748;-69
2021/11/20 14:59:58;;;;;;;8.48;3.05;;;;;;;10.58;55.54;98787.84;1751169;80;20856;-64
2021/11/20 15:02:24;;;;;;;9.20;3.40;;;;;;;10.51;55.70;98792.23;1765598;80;20990;-72
2021/11/20 15:04:53;;;;;;;7.03;2.37;;;;;;;10.47;55.84;98796.28;1764758;80;20896;-73
2021/11/20 15:07:19;;;;;;;9.33;2.70;;;;;;;10.42;55.90;98797.34;1764517;80;21502;-67
2021/11/20 15:09:46;;;;;;;7.50;3.70;;;;;;;10.36;56.12;98801.56;1764073;80;21524;-65
2021/11/20 15:12:12;;;;;;;8.45;3.40;;;;;;;10.31;56.36;98807.95;1771475;80;21402;-73
2021/11/20 15:14:39;;;;;;;9.23;3.55;;;;;;;10.26;56.52;98806.34;1766136;80;20935;-72
2021/11/20 15:17:07;;;;;;;6.03;3.08;;;;;;;10.19;56.67;98805.45;1758966;80;20978;-72
2021/11/20 15:19:35;;;;;;;6.03;2.50;;;;;;;10.16;56.90;98820.42;1763305;80;20939;-68
2021/11/20 15:22:03;;;;;;;6.97;2.85;;;;;;;10.12;57.10;98827.56;1766174;80;21133;-67
2021/11/20 15:24:30;;;;;;;11.00;2.98;;;;;;;10.08;57.29;98835.59;1768816;80;21002;-68
2021/11/20 15:27:00;;;;;;;8.05;3.27;;;;;;;10.03;57.46;98835.32;1758700;80;21029;-69
2021/11/20 15:29:28;;;;;;;5.22;2.65;;;;;;;9.99;57.63;98836.17;1769135;80;20923;-69
2021/11/20 15:31:56;;;;;;;6.35;2.85;;;;;;;9.92;57.83;98840.08;1749147;80;20958;-71
2021/11/20 15:34:24;;;;;;;5.87;2.70;;;;;;;9.83;58.30;98838.98;1760489;80;21521;-69
2021/11/20 15:36:51;;;;;;;6.62;3.00;;;;;;;9.79;58.58;98839.04;1754617;80;20935;-73
2021/11/20 15:39:18;;;;;;;6.72;2.92;;;;;;;9.76;58.78;98838.90;1763498;80;21027;-71
2021/11/20 15:41:45;;;;;;;7.67;3.27;;;;;;;9.75;58.99;98831.12;1757283;80;21485;-72
2021/11/20 15:44:11;;;;;;;12.35;3.40;;;;;;;9.76;59.13;98836.73;1758402;80;20974;-71
2021/11/20 15:46:38;;;;;;;7.25;3.50;;;;;;;9.77;59.13;98837.08;1761789;80;21033;-72
2021/11/20 15:49:04;;;;;;;10.28;3.40;;;;;;;9.78;59.27;98836.05;1760802;80;20947;-71
2021/11/20 15:51:30;;;;;;;9.10;3.25;;;;;;;9.80;59.57;98836.19;1760711;80;20971;-71
2021/11/20 15:53:57;;;;;;;7.08;3.35;;;;;;;9.82;59.58;98830.22;1764931;80;20986;-73
2021/11/20 15:56:23;;;;;;;6.25;3.35;;;;;;;9.87;59.54;98839.80;1764767;80;21504;-70
2021/11/20 15:58:53;;;;;;;8.75;3.35;;;;;;;9.91;59.46;98838.91;1761954;80;21162;-67
2021/11/20 16:01:23;;;;;;;8.08;2.95;;;;;;;9.97;59.43;98844.84;1751341;80;21496;-68
2021/11/20 16:03:51;;;;;;;8.80;3.30;;;;;;;10.05;59.38;98849.23;1765118;80;20935;-71
2021/11/20 16:06:18;;;;;;;9.55;4.08;;;;;;;10.07;59.35;98860.01;1755855;80;21533;-65
2021/11/20 16:08:46;;;;;;;9.63;3.27;;;;;;;10.13;59.44;98848.69;1758788;80;21148;-67
2021/11/20 16:11:12;;;;;;;11.20;4.47;;;;;;;10.16;59.43;98849.66;1763380;80;21143;-67
2021/11/20 16:13:39;;;;;;;7.25;2.92;;;;;;;10.21;59.34;98847.28;1759204;80;20943;-67
2021/11/20 16:16:05;;;;;;;7.53;3.20;;;;;;;10.23;59.33;98845.75;1762344;80;20956;-66
2021/11/20 16:18:32;;;;;;;12.20;2.80;;;;;;;10.31;59.41;98844.34;1760500;80;20968;-68
2021/11/20 16:20:59;;;;;;;7.87;2.67;;;;;;;10.36;59.42;98847.27;1765961;80;20931;-67
2021/11/20 16:23:26;;;;;;;8.03;3.98;;;;;;;10.39;59.20;98846.41;1760719;80;22073;-67
2021/11/20 16:25:52;;;;;;;8.13;4.22;;;;;;;10.39;59.13;98853.55;1765741;80;21347;-69
2021/11/20 16:28:19;;;;;;;6.10;3.40;;;;;;;10.36;59.10;98850.75;1766789;80;20987;-69
2021/11/20 16:30:46;;;;;;;8.43;4.47;;;;;;;10.43;59.56;98858.30;1758961;80;20947;-65
2021/11/20 16:33:12;;;;;;;11.38;3.90;;;;;;;10.48;59.08;98857.25;1768660;80;21029;-66
2021/11/20 16:35:40;;;;;;;8.33;3.98;;;;;;;10.42;59.04;98857.17;1762596;80;21167;-66
2021/11/20 16:38:06;;;;;;;7.35;3.72;;;;;;;10.42;59.12;98853.19;1763763;80;20989;-66
2021/11/20 16:40:33;;;;;;;15.15;4.47;;;;;;;10.41;59.32;98851.52;1764524;80;20904;-66
2021/11/20 16:42:59;;;;;;;9.08;3.80;;;;;;;10.40;59.42;98851.22;1746573;80;21136;-66
2021/11/20 16:45:25;;;;;;;10.30;4.47;;;;;;;10.34;59.55;98847.96;1745991;80;21501;-66
2021/11/20 16:47:52;;;;;;;11.48;4.55;;;;;;;10.25;59.86;98841.07;1761733;80;21162;-65
2021/11/20 16:50:38;;;;;;;7.67;3.55;;;;;;;10.19;60.23;98841.33;1768000;80;20970;-67
2021/11/20 16:52:48;;;;;;;7.50;3.12;;;;;;;10.18;60.59;98842.82;1761596;80;21517;-66
2021/11/20 16:55:16;;;;;;;11.90;3.75;;;;;;;10.16;61.03;98843.52;1753275;80;20956;-70
2021/11/20 16:57:43;;;;;;;9.35;3.50;;;;;;;10.11;61.46;98845.37;1759263;80;21544;-69
2021/11/20 17:00:11;;;;;;;7.58;3.75;;;;;;;10.11;61.84;98841.87;1759276;80;21476;-69
2021/11/20 17:02:38;;;;;;;9.00;3.70;;;;;;;10.07;62.08;98837.42;1751355;80;21050;-68
2021/11/20 17:05:06;;;;;;;8.50;3.25;;;;;;;10.00;62.52;98836.51;1751273;80;20938;-74
2021/11/20 17:07:37;;;;;;;8.23;3.62;;;;;;;9.90;62.95;98841.27;1766432;80;20936;-74
2021/11/20 17:10:01;;;;;;;7.67;3.83;;;;;;;9.79;63.50;98837.22;1758764;80;21043;-74
2021/11/20 17:12:29;;;;;;;11.63;4.55;;;;;;;9.76;64.10;98839.39;1765762;80;21021;-73
2021/11/20 17:14:56;;;;;;;9.15;4.40;;;;;;;9.73;64.58;98829.95;1762318;80;21391;-75
2021/11/20 17:17:23;;;;;;;8.80;4.40;;;;;;;9.74;64.94;98828.13;1760557;80;20951;-69
2021/11/20 17:19:49;;;;;;;10.38;5.25;;;;;;;9.71;65.25;98829.81;1757675;80;20915;-73
2021/11/20 17:22:16;;;;;;;8.25;4.35;;;;;;;9.76;65.61;98831.43;1766304;80;20891;-71
2021/11/20 17:24:42;;;;;;;7.97;5.37;;;;;;;9.77;65.74;98825.13;1754196;80;21578;-69
2021/11/20 17:27:09;;;;;;;16.32;4.42;;;;;;;9.74;65.91;98832.12;1765540;80;20990;-70
2021/11/20 17:29:36;;;;;;;10.13;5.05;;;;;;;9.70;66.15;98822.34;1764603;80;20990;-70
2021/11/20 17:32:03;;;;;;;13.75;4.67;;;;;;;9.70;66.38;98814.88;1759448;80;20867;-68
2021/11/20 17:34:34;;;;;;;9.05;4.80;;;;;;;9.72;66.59;98818.20;1766192;80;20979;-69
2021/11/20 17:37:01;;;;;;;8.75;4.67;;;;;;;9.68;66.76;98816.89;1762645;80;21509;-71
2021/11/20 17:39:27;;;;;;;9.23;4.45;;;;;;;9.65;67.04;98815.42;1759721;80;20976;-70
2021/11/20 17:41:54;;;;;;;12.13;4.20;;;;;;;9.70;67.21;98814.88;1761662;80;20954;-68
2021/11/20 17:44:20;;;;;;;8.13;3.85;;;;;;;9.68;67.38;98811.09;1758013;80;20943;-72
2021/11/20 17:46:47;;;;;;;11.65;5.90;;;;;;;9.66;67.59;98815.76;1763102;80;21493;-69
2021/11/20 17:49:14;;;;;;;9.90;4.70;;;;;;;9.69;67.75;98813.24;1756614;80;21548;-71
2021/11/20 17:51:41;;;;;;;7.58;4.08;;;;;;;9.74;67.95;98813.52;1763676;80;21544;-70
2021/11/20 17:54:07;;;;;;;11.00;5.12;;;;;;;9.77;68.05;98815.33;1759396;80;21063;-67
2021/11/20 17:56:34;;;;;;;6.28;4.00;;;;;;;9.81;67.98;98808.63;1752658;80;20990;-66
2021/11/20 17:59:01;;;;;;;8.43;4.30;;;;;;;9.85;68.06;98808.58;1764521;80;21066;-69
2021/11/20 18:01:28;;;;;;;8.38;3.95;;;;;;;9.88;68.29;98802.91;1757661;80;21150;-69
2021/11/20 18:03:55;;;;;;;7.25;3.10;;;;;;;9.91;68.34;98803.87;1751931;80;20986;-68
2021/11/20 18:06:22;;;;;;;5.30;3.27;;;;;;;9.94;68.48;98798.70;1755187;80;20992;-70
2021/11/20 18:08:52;;;;;;;8.58;4.47;;;;;;;10.01;68.38;98795.63;1760277;80;21014;-70
2021/11/20 18:11:16;;;;;;;7.17;4.15;;;;;;;10.09;68.29;98788.09;1750290;80;20856;-73
2021/11/20 18:13:43;;;;;;;6.92;3.77;;;;;;;10.16;68.16;98792.52;1754257;80;21148;-74
2021/11/20 18:16:11;;;;;;;9.43;4.70;;;;;;;10.19;68.04;98792.16;1764465;80;21042;-71
2021/11/20 18:18:39;;;;;;;7.65;4.65;;;;;;;10.17;68.02;98786.17;1757513;80;21540;-78
2021/11/20 18:21:05;;;;;;;10.45;4.80;;;;;;;10.17;68.09;98784.84;1753265;80;21014;-70
2021/11/20 18:23:32;;;;;;;11.03;4.15;;;;;;;10.16;68.02;98783.71;1761399;80;20986;-64
2021/11/20 18:25:58;;;;;;;8.33;4.42;;;;;;;10.13;68.20;98778.76;1749238;80;21125;-69
2021/11/20 18:28:28;;;;;;;9.23;5.10;;;;;;;10.07;68.30;98776.80;1758032;80;21505;-72
2021/11/20 18:30:54;;;;;;;9.88;5.08;;;;;;;10.01;68.43;98773.03;1752265;80;21086;-75
2021/11/20 18:33:21;;;;;;;7.90;4.53;;;;;;;9.90;68.96;98765.05;1757950;80;20990;-70
2021/11/20 18:35:48;;;;;;;10.28;5.03;;;;;;;9.88;69.12;98767.04;1712794;82;21026;-73
2021/11/20 18:38:23;;;;;;;9.88;5.28;;;;;;;9.81;69.36;98763.47;1683657;84;21161;-71
2021/11/20 18:40:44;;;;;;;9.68;5.17;;;;;;;9.80;69.61;98769.78;1740825;80;21445;-69
2021/11/20 18:43:11;;;;;;;8.83;4.80;;;;;;;9.74;69.72;98767.05;1722574;80;20990;-69
2021/11/20 18:45:37;;;;;;;9.68;4.87;;;;;;;9.76;69.93;98762.37;1700647;81;21536;-63
2021/11/20 18:48:05;;;;;;;10.65;5.60;;;;;;;9.74;70.12;98763.05;1699822;81;21485;-74
2021/11/20 18:50:32;;;;;;;8.73;6.00;;;;;;;9.70;70.34;98763.91;1705763;81;21154;-68
2021/11/20 18:53:00;;;;;;;12.40;6.65;;;;;;;9.68;70.48;98761.95;1706433;82;20899;-68
2021/11/20 18:55:31;;;;;;;8.05;5.67;;;;;;;9.67;70.52;98762.94;1703602;81;20899;-65
2021/11/20 18:57:56;;;;;;;9.10;6.33;;;;;;;9.65;70.64;98760.98;1685244;83;21018;-65
2021/11/20 19:00:22;;;;;;;8.93;5.92;;;;;;;9.64;70.85;98762.00;1656564;85;20920;-67
2021/11/20 19:02:49;;;;;;;8.95;5.58;;;;;;;9.65;70.92;98757.00;1710432;82;21146;-70
2021/11/20 19:05:16;;;;;;;7.78;4.87;;;;;;;9.69;71.00;98753.48;1724508;81;21014;-69
2021/11/20 19:07:44;;;;;;;10.78;5.90;;;;;;;9.77;70.93;98760.05;1718036;81;22168;-67
2021/11/20 19:10:10;;;;;;;7.83;4.45;;;;;;;9.80;70.90;98756.50;1706349;82;21615;-67
2021/11/20 19:12:37;;;;;;;10.23;5.22;;;;;;;9.86;70.82;98751.80;1715163;81;21020;-71
2021/11/20 19:15:06;;;;;;;11.08;5.55;;;;;;;9.82;70.86;98750.52;1722494;83;21139;-78
2021/11/20 19:17:33;;;;;;;11.45;4.50;;;;;;;9.76;71.08;98751.24;1655783;84;20970;-73
2021/11/20 19:20:02;;;;;;;9.83;4.83;;;;;;;9.71;71.42;98744.83;1707309;81;20962;-78
2021/11/20 19:22:28;;;;;;;12.47;5.33;;;;;;;9.74;71.57;98741.31;1703603;81;21591;-66
2021/11/20 19:24:55;;;;;;;8.35;5.20;;;;;;;9.80;71.42;98743.75;1713926;81;20940;-70
2021/11/20 19:27:21;;;;;;;9.40;4.97;;;;;;;9.85;71.42;98738.17;1714445;81;21090;-66
2021/11/20 19:29:48;;;;;;;8.95;5.70;;;;;;;9.89;71.40;98733.33;1717305;81;21492;-68
2021/11/20 19:32:15;;;;;;;9.68;6.37;;;;;;;9.91;71.44;98738.78;1716782;81;20987;-76
2021/11/20 19:34:41;;;;;;;12.15;6.58;;;;;;;9.94;71.46;98737.09;1724154;81;21013;-69
2021/11/20 19:37:10;;;;;;;10.82;6.58;;;;;;;9.97;71.44;98740.38;1711553;83;21073;-67
2021/11/20 19:39:37;;;;;;;10.30;6.47;;;;;;;9.98;71.48;98739.38;1710634;81;21906;-72
2021/11/20 19:42:05;;;;;;;9.28;6.15;;;;;;;9.99;71.54;98737.03;1713670;81;20895;-73
2021/11/20 19:44:32;;;;;;;11.53;6.33;;;;;;;10.05;71.51;98730.48;1759840;81;21027;-69
2021/11/20 19:46:58;;;;;;;10.65;6.80;;;;;;;10.12;71.35;98730.55;1762059;81;21513;-69
2021/11/20 19:49:25;;;;;;;8.83;5.83;;;;;;;10.13;71.28;98734.41;1760847;81;21454;-69
2021/11/20 19:51:51;;;;;;;7.90;5.75;;;;;;;10.11;71.38;98728.93;1759379;81;21076;-68
2021/11/20 19:54:21;;;;;;;8.33;5.67;;;;;;;10.10;71.37;98735.23;1755518;81;20944;-69
2021/11/20 19:56:48;;;;;;;10.10;6.17;;;;;;;10.04;71.56;98729.36;1756992;81;21489;-65
2021/11/20 19:59:16;;;;;;;8.13;5.90;;;;;;;10.01;71.78;98735.84;1757043;81;20943;-64
2021/11/20 20:01:44;;;;;;;8.05;5.67;;;;;;;10.01;72.00;98735.03;1762314;81;21576;-70
2021/11/20 20:04:13;;;;;;;9.10;5.25;;;;;;;10.06;72.00;98732.14;1765241;81;21854;-69
2021/11/20 20:06:41;;;;;;;11.28;6.35;;;;;;;10.09;72.02;98721.66;1723695;83;21528;-65
2021/11/20 20:09:08;;;;;;;9.35;6.70;;;;;;;10.07;71.98;98726.30;1717472;82;21552;-69
2021/11/20 20:11:37;;;;;;;10.00;5.95;;;;;;;10.06;72.16;98721.52;1684338;84;21438;-70
2021/11/20 20:14:05;;;;;;;10.03;6.03;;;;;;;10.04;72.26;98722.19;1755454;81;20950;-70
2021/11/20 20:16:33;;;;;;;7.62;5.60;;;;;;;10.06;72.38;98720.69;1750211;81;21033;-67
2021/11/20 20:19:00;;;;;;;9.25;6.05;;;;;;;10.05;72.46;98721.69;1750456;81;21533;-68
2021/11/20 20:21:26;;;;;;;8.95;6.10;;;;;;;10.05;72.55;98721.69;1761504;81;21051;-69
2021/11/20 20:23:55;;;;;;;10.80;6.33;;;;;;;10.05;72.69;98719.86;1754771;81;20927;-66
2021/11/20 20:26:24;;;;;;;9.48;5.80;;;;;;;10.09;72.63;98728.30;1757980;81;20915;-70
2021/11/20 20:28:56;;;;;;;12.98;7.83;;;;;;;10.05;72.77;98721.69;1753152;81;21900;-69
2021/11/20 20:31:24;;;;;;;16.23;7.20;;;;;;;10.06;72.83;98722.84;1756869;81;20991;-71
2021/11/20 20:33:50;;;;;;;11.73;7.53;;;;;;;10.13;72.77;98725.60;1758949;81;21462;-68
2021/11/20 20:36:17;;;;;;;9.38;6.78;;;;;;;10.19;72.63;98724.38;1752643;81;20970;-66
2021/11/20 20:38:43;;;;;;;8.90;6.42;;;;;;;10.25;72.48;98712.14;1757055;81;21003;-68
2021/11/20 20:41:10;;;;;;;11.75;6.42;;;;;;;10.25;72.37;98712.14;1755802;81;21151;-67
2021/11/20 20:43:41;;;;;;;8.55;5.97;;;;;;;10.26;72.28;98713.80;1745814;81;20928;-67
2021/11/20 20:46:08;;;;;;;7.47;5.62;;;;;;;10.27;72.23;98712.27;1721204;82;21500;-67
2021/11/20 20:48:35;;;;;;;9.63;6.25;;;;;;;10.21;72.49;98709.55;1726903;82;21051;-65
2021/11/20 20:51:03;;;;;;;10.93;7.12;;;;;;;10.19;72.65;98712.41;1721772;82;21063;-67
2021/11/20 20:53:30;;;;;;;9.35;6.35;;;;;;;10.21;72.57;98712.22;1730737;82;21151;-67
2021/11/20 20:55:56;;;;;;;9.18;5.85;;;;;;;10.16;72.70;98702.15;1730939;82;20857;-69
2021/11/20 20:58:23;;;;;;;8.03;5.75;;;;;;;10.11;72.93;98698.36;1733247;82;21399;-66
2021/11/20 21:00:50;;;;;;;6.67;5.75;;;;;;;10.08;73.20;98698.73;1730090;81;20943;-68
2021/11/20 21:03:16;;;;;;;8.75;5.90;;;;;;;10.11;73.21;98691.72;1724290;81;21050;-67
2021/11/20 21:05:43;;;;;;;7.17;5.28;;;;;;;10.16;73.21;98692.84;1730424;82;21083;-68
2021/11/20 21:08:11;;;;;;;7.00;5.67;;;;;;;10.18;73.18;98692.15;1733095;82;20900;-65
2021/11/20 21:10:38;;;;;;;7.15;5.67;;;;;;;10.18;73.21;98695.30;1733705;82;21497;-68
2021/11/20 21:13:05;;;;;;;8.28;5.70;;;;;;;10.15;73.29;98693.02;1729141;82;21038;-66
2021/11/20 21:15:32;;;;;;;7.10;5.70;;;;;;;10.15;73.43;98687.70;1730649;82;21023;-71
2021/11/20 21:18:04;;;;;;;6.75;5.55;;;;;;;10.13;73.69;98684.41;1734627;82;21532;-68
2021/11/20 21:23:12;;;;;;;11.00;5.47;;;;;;;10.19;73.91;98685.83;1727580;82;21064;-66
2021/11/20 21:25:38;;;;;;;7.40;5.80;;;;;;;10.24;74.03;98678.62;1733112;82;21628;-64
2021/11/20 21:28:05;;;;;;;6.10;5.42;;;;;;;10.27;74.14;98670.27;1725010;82;20939;-66
2021/11/20 21:30:34;;;;;;;6.60;5.85;;;;;;;10.29;74.36;98672.23;1729576;82;21133;-65
2021/11/20 21:33:01;;;;;;;6.05;5.40;;;;;;;10.30;74.78;98671.20;1728545;82;20939;-65
2021/11/20 21:35:28;;;;;;;6.97;5.85;;;;;;;10.29;75.06;98663.76;1729724;82;21038;-66
2021/11/20 21:37:55;;;;;;;6.22;5.58;;;;;;;10.30;75.52;98660.57;1719750;82;21000;-65
2021/11/20 21:40:23;;;;;;;9.20;6.12;;;;;;;10.36;75.82;98665.97;1720488;82;21552;-65
2021/11/20 21:42:49;;;;;;;6.87;5.58;;;;;;;10.42;75.86;98665.23;1726833;82;21148;-66
2021/11/20 21:45:16;;;;;;;6.42;5.65;;;;;;;10.48;75.92;98670.30;1754770;80;20985;-67
2021/11/20 21:50:46;;;;;;;7.10;5.70;;;;;;;10.52;76.70;98658.26;1763613;80;20966;-64
2021/11/20 21:53:15;;;;;;;6.97;6.05;;;;;;;10.57;77.60;98661.17;1759562;80;21094;-63
2021/11/20 21:55:41;;;;;;;5.75;5.25;;;;;;;10.57;78.34;98655.85;1756029;80;21169;-64
2021/11/20 21:58:08;;;;;;;6.60;5.90;;;;;;;10.62;78.98;98653.95;1770814;80;21615;-66
2021/11/20 22:00:53;;;;;;;7.15;5.80;;;;;;;10.61;80.04;98639.81;1762644;80;20940;-65
2021/11/20 22:03:20;;;;;;;7.42;5.83;;;;;;;10.61;81.99;98647.80;1771485;80;21543;-65
2021/11/20 22:05:46;;;;;;;8.20;6.50;;;;;;;10.65;83.16;98647.75;1769825;80;20931;-66
2021/11/20 22:08:13;;;;;;;7.35;6.03;;;;;;;10.73;82.59;98640.97;1759483;80;21133;-65
2021/11/20 22:10:39;;;;;;;7.10;6.30;;;;;;;10.75;82.43;98636.77;1754013;80;20986;-66
2021/11/20 22:13:08;;;;;;;6.47;5.58;;;;;;;10.78;82.66;98643.87;1756145;80;21520;-66
2021/11/20 22:15:37;;;;;;;7.42;5.58;;;;;;;10.84;82.22;98631.15;1756959;80;20955;-63
2021/11/20 22:18:06;;;;;;;6.40;5.80;;;;;;;10.84;82.17;98631.15;1757972;80;20923;-65
2021/11/20 22:20:32;;;;;;;7.12;5.72;;;;;;;10.85;82.16;98629.28;1764231;80;21992;-64
2021/11/20 22:22:59;;;;;;;6.60;5.83;;;;;;;10.82;82.38;98623.05;1749372;80;20944;-65
2021/11/20 22:25:26;;;;;;;6.72;6.03;;;;;;;10.82;82.25;98623.84;1755369;80;20927;-64
2021/11/20 22:27:55;;;;;;;6.30;5.65;;;;;;;10.84;82.24;98620.51;1769809;80;20927;-64
2021/11/20 22:30:22;;;;;;;8.48;6.00;;;;;;;10.90;82.02;98622.37;1772451;80;21571;-64
2021/11/20 22:32:49;;;;;;;8.08;6.00;;;;;;;10.97;81.78;98621.94;1759822;80;21295;-65
2021/11/20 22:35:17;;;;;;;8.58;5.83;;;;;;;11.00;81.71;98618.06;1751236;80;21008;-64
2021/11/20 22:37:45;;;;;;;5.58;5.08;;;;;;;11.05;81.48;98616.44;1766064;80;20986;-65
2021/11/20 22:40:12;;;;;;;6.78;6.17;;;;;;;11.08;81.25;98606.75;1732902;80;20990;-65
2021/11/20 22:42:39;;;;;;;8.85;7.12;;;;;;;11.16;80.88;98609.77;1762450;80;21055;-66
2021/11/20 22:45:06;;;;;;;7.33;6.20;;;;;;;11.20;80.65;98598.23;1747001;80;21135;-65
2021/11/20 22:47:36;;;;;;;6.30;5.70;;;;;;;11.21;80.45;98600.68;1757566;81;21009;-65
2021/11/20 22:50:05;;;;;;;7.70;6.90;;;;;;;11.23;80.36;98593.85;1757923;81;21421;-66
2021/11/20 22:52:31;;;;;;;6.58;5.97;;;;;;;11.23;80.29;98589.86;1745875;81;21520;-66
2021/11/20 22:54:58;;;;;;;6.45;5.83;;;;;;;11.22;80.29;98601.52;1754534;81;21030;-67
2021/11/20 22:57:42;;;;;;;7.08;6.08;;;;;;;11.29;80.05;98578.44;1756155;81;21125;-65
2021/11/20 23:00:17;;;;;;;5.92;5.35;;;;;;;11.29;79.94;98581.09;1760712;81;20896;-64
2021/11/20 23:02:43;;;;;;;6.50;5.80;;;;;;;11.26;79.91;98580.98;1757448;81;20919;-65
2021/11/20 23:05:10;;;;;;;5.87;5.28;;;;;;;11.24;79.96;98587.52;1766697;81;20966;-65
2021/11/20 23:07:37;;;;;;;5.40;4.80;;;;;;;11.27;79.96;98579.11;1743619;81;20896;-65
2021/11/20 23:10:05;;;;;;;5.70;5.10;;;;;;;11.28;79.90;98581.59;1748733;81;21144;-66
2021/11/20 23:12:33;;;;;;;5.60;5.10;;;;;;;11.23;80.12;98577.38;1756811;81;20927;-66
2021/11/20 23:14:59;;;;;;;5.75;5.22;;;;;;;11.22;80.31;98575.72;1746120;81;20939;-66
2021/11/20 23:17:26;;;;;;;6.15;5.55;;;;;;;11.26;80.19;98580.98;1749232;81;21482;-66
2021/11/20 23:19:52;;;;;;;6.75;5.10;;;;;;;11.29;80.12;98579.23;1752788;81;21068;-65
2021/11/20 23:22:19;;;;;;;5.97;4.60;;;;;;;11.30;80.19;98586.21;1768729;81;21785;-65
2021/11/20 23:24:46;;;;;;;5.17;4.67;;;;;;;11.28;80.31;98577.60;1760051;81;20982;-65
2021/11/20 23:27:14;;;;;;;5.47;4.97;;;;;;;11.26;80.48;98586.81;1748527;81;21489;-65
2021/11/20 23:29:43;;;;;;;6.28;4.78;;;;;;;11.32;80.41;98578.84;1761112;81;20983;-64
2021/11/20 23:32:09;;;;;;;5.47;4.83;;;;;;;11.29;80.58;98577.90;1749927;81;21014;-65
2021/11/20 23:34:36;;;;;;;6.15;4.75;;;;;;;11.26;80.93;98568.17;1753117;81;21151;-65
2021/11/20 23:37:03;;;;;;;5.35;4.85;;;;;;;11.27;80.97;98571.13;1754194;80;21449;-64
2021/11/20 23:39:30;;;;;;;5.35;4.85;;;;;;;11.27;81.08;98564.47;1752983;81;21510;-65
2021/11/20 23:41:56;;;;;;;6.17;4.95;;;;;;;11.31;81.16;98568.41;1751658;81;20935;-65
2021/11/20 23:44:23;;;;;;;6.12;5.45;;;;;;;11.32;81.40;98561.53;1762738;81;20986;-64
2021/11/20 23:46:49;;;;;;;5.78;5.15;;;;;;;11.31;81.65;98564.41;1756817;80;21857;-64
2021/11/20 23:49:16;;;;;;;5.87;4.70;;;;;;;11.33;81.54;98557.86;1744724;81;20962;-65
2021/11/20 23:51:43;;;;;;;5.47;4.58;;;;;;;11.32;82.25;98559.38;1760424;81;20943;-65
2021/11/20 23:54:10;;;;;;;4.87;4.37;;;;;;;11.30;82.23;98560.91;1752700;81;21002;-64
2021/11/20 23:56:37;;;;;;;4.58;4.17;;;;;;;11.26;82.40;98568.17;1746588;81;20963;-64
2021/11/20 23:59:04;;;;;;;4.65;4.25;;;;;;;11.29;82.42;98558.47;1753954;81;21956;-65
